createdAt,value
2023-02-25T00:01:30.892Z,976.8
2023-02-25T00:03:56.970Z,976.8
2023-02-25T00:06:23.078Z,976.8
2023-02-25T00:08:49.166Z,976.9
2023-02-25T00:11:15.261Z,976.9
2023-02-25T00:13:41.456Z,976.8
2023-02-25T00:16:07.498Z,976.9
2023-02-25T00:18:33.547Z,976.8
2023-02-25T00:20:59.653Z,976.8
2023-02-25T00:23:25.739Z,976.9
2023-02-25T00:25:51.842Z,976.9
2023-02-25T00:28:16.953Z,976.9
2023-02-25T00:30:43.150Z,976.9
2023-02-25T00:33:09.143Z,976.9
2023-02-25T00:35:35.246Z,976.9
2023-02-25T00:38:01.329Z,976.7
2023-02-25T00:40:27.410Z,976.8
2023-02-25T00:42:53.512Z,976.8
2023-02-25T00:45:19.616Z,976.8
2023-02-25T00:47:45.708Z,976.8
2023-02-25T00:50:11.811Z,976.8
2023-02-25T00:52:37.904Z,976.9
2023-02-25T00:55:03.992Z,977
2023-02-25T00:57:30.086Z,977
2023-02-25T00:59:55.314Z,977
2023-02-25T01:02:21.287Z,976.9
2023-02-25T01:04:47.408Z,976.8
2023-02-25T01:07:13.478Z,976.8
2023-02-25T01:09:39.573Z,977
2023-02-25T01:12:05.679Z,977
2023-02-25T01:14:31.766Z,976.9
2023-02-25T01:16:57.856Z,976.9
2023-02-25T01:19:23.971Z,977
2023-02-25T01:21:50.053Z,977.1
2023-02-25T01:24:16.177Z,977.1
2023-02-25T01:26:42.271Z,977.1
2023-02-25T01:29:08.341Z,977
2023-02-25T01:31:33.472Z,977
2023-02-25T01:33:59.551Z,977
2023-02-25T01:36:25.631Z,977.1
2023-02-25T01:38:51.767Z,977
2023-02-25T01:41:17.822Z,977
2023-02-25T01:43:43.934Z,977.1
2023-02-25T01:46:10.020Z,977.1
2023-02-25T01:48:36.146Z,977.2
2023-02-25T01:51:02.217Z,977.4
2023-02-25T01:53:28.354Z,977.4
2023-02-25T01:55:54.413Z,977.5
2023-02-25T01:58:20.514Z,977.3
2023-02-25T02:00:46.627Z,977.4
2023-02-25T02:03:11.713Z,977.3
2023-02-25T02:05:37.844Z,977.2
2023-02-25T02:08:03.905Z,977.1
2023-02-25T02:10:29.989Z,977.2
2023-02-25T02:12:56.098Z,977.1
2023-02-25T02:15:22.190Z,977.1
2023-02-25T02:17:48.294Z,977
2023-02-25T02:20:14.425Z,977
2023-02-25T02:22:40.477Z,977.1
2023-02-25T02:25:06.576Z,977.2
2023-02-25T02:27:32.663Z,977.2
2023-02-25T02:29:58.826Z,977.1
2023-02-25T02:32:24.860Z,977.2
2023-02-25T02:34:49.977Z,977.1
2023-02-25T02:37:16.072Z,977.2
2023-02-25T02:39:42.154Z,977.2
2023-02-25T02:42:08.254Z,977.3
2023-02-25T02:44:34.359Z,977.4
2023-02-25T02:47:00.449Z,977.5
2023-02-25T02:49:26.552Z,977.5
2023-02-25T02:51:52.649Z,977.5
2023-02-25T02:54:18.721Z,977.5
2023-02-25T02:56:44.828Z,977.5
2023-02-25T02:59:10.943Z,977.5
2023-02-25T03:01:37.040Z,977.6
2023-02-25T03:04:03.099Z,977.5
2023-02-25T03:06:28.220Z,977.5
2023-02-25T03:08:54.311Z,977.4
2023-02-25T03:11:20.416Z,977.5
2023-02-25T03:13:46.509Z,977.6
2023-02-25T03:16:12.630Z,977.6
2023-02-25T03:18:38.707Z,977.6
2023-02-25T03:21:04.839Z,977.6
2023-02-25T03:23:30.894Z,977.6
2023-02-25T03:25:56.983Z,977.6
2023-02-25T03:28:23.080Z,977.6
2023-02-25T03:30:49.173Z,977.7
2023-02-25T03:33:15.271Z,977.7
2023-02-25T03:35:41.388Z,977.8
2023-02-25T03:38:06.480Z,977.7
2023-02-25T03:40:32.581Z,977.7
2023-02-25T03:42:58.717Z,977.7
2023-02-25T03:45:24.777Z,977.8
2023-02-25T03:47:50.978Z,977.8
2023-02-25T03:50:16.976Z,977.7
2023-02-25T03:52:43.056Z,977.8
2023-02-25T03:55:09.146Z,977.8
2023-02-25T03:57:35.303Z,977.8
2023-02-25T04:00:01.342Z,977.9
2023-02-25T04:02:27.445Z,977.8
2023-02-25T04:04:53.534Z,977.9
2023-02-25T04:07:19.625Z,977.9
2023-02-25T04:09:44.736Z,977.9
2023-02-25T04:12:10.836Z,977.9
2023-02-25T04:14:36.930Z,978
2023-02-25T04:17:03.026Z,978
2023-02-25T04:19:29.117Z,978.1
2023-02-25T04:21:55.214Z,978.1
2023-02-25T04:24:21.392Z,978.1
2023-02-25T04:26:47.397Z,978.1
2023-02-25T04:29:13.515Z,978.1
2023-02-25T04:31:39.604Z,978.1
2023-02-25T04:34:05.743Z,978.2
2023-02-25T04:36:31.800Z,978.1
2023-02-25T04:38:57.886Z,978.1
2023-02-25T04:41:23.014Z,978.1
2023-02-25T04:43:49.112Z,978.2
2023-02-25T04:46:15.165Z,978.1
2023-02-25T04:48:41.279Z,978.2
2023-02-25T04:51:07.383Z,978.2
2023-02-25T04:53:33.479Z,978.3
2023-02-25T04:55:58.601Z,978.2
2023-02-25T04:58:24.696Z,978.2
2023-02-25T05:00:50.775Z,978.2
2023-02-25T05:03:16.884Z,978.2
2023-02-25T05:05:42.981Z,978.2
2023-02-25T05:08:09.077Z,978.2
2023-02-25T05:13:01.288Z,978.3
2023-02-25T05:15:27.354Z,978.1
2023-02-25T05:20:19.556Z,978.2
2023-02-25T05:22:45.683Z,978.3
2023-02-25T05:25:11.779Z,978.2
2023-02-25T05:27:37.965Z,978.3
2023-02-25T05:30:04.060Z,978.3
2023-02-25T05:32:30.190Z,978.3
2023-02-25T05:34:56.291Z,978.3
2023-02-25T05:37:22.353Z,978.3
2023-02-25T05:39:48.449Z,978.2
2023-02-25T05:42:14.566Z,978.2
2023-02-25T05:44:40.639Z,978.3
2023-02-25T05:47:06.733Z,978.3
2023-02-25T05:49:32.830Z,978.3
2023-02-25T05:51:58.930Z,978.4
2023-02-25T05:54:25.007Z,978.4
2023-02-25T05:56:51.118Z,978.3
2023-02-25T05:59:16.225Z,978.4
2023-02-25T06:01:42.314Z,978.4
2023-02-25T06:04:08.463Z,978.4
2023-02-25T06:06:34.499Z,978.4
2023-02-25T06:09:00.593Z,978.5
2023-02-25T06:11:26.698Z,978.6
2023-02-25T06:13:52.784Z,978.5
2023-02-25T06:16:18.899Z,978.6
2023-02-25T06:18:44.982Z,978.5
2023-02-25T06:21:11.072Z,978.5
2023-02-25T06:23:37.194Z,978.5
2023-02-25T06:26:03.272Z,978.6
2023-02-25T06:28:29.364Z,978.6
2023-02-25T06:30:54.527Z,978.7
2023-02-25T06:33:20.571Z,978.8
2023-02-25T06:35:46.690Z,978.7
2023-02-25T06:38:12.767Z,978.8
2023-02-25T06:40:38.859Z,978.8
2023-02-25T06:43:05.063Z,978.8
2023-02-25T06:45:31.045Z,978.8
2023-02-25T06:47:57.189Z,978.7
2023-02-25T06:50:23.233Z,978.6
2023-02-25T06:52:49.359Z,978.6
2023-02-25T06:55:15.466Z,978.5
2023-02-25T06:57:41.542Z,978.6
2023-02-25T07:00:07.680Z,978.7
2023-02-25T07:02:32.741Z,978.7
2023-02-25T07:04:58.823Z,978.8
2023-02-25T07:07:24.934Z,978.8
2023-02-25T07:09:51.025Z,978.8
2023-02-25T07:12:17.122Z,978.9
2023-02-25T07:14:43.233Z,978.9
2023-02-25T07:17:09.318Z,979
2023-02-25T07:19:35.424Z,978.9
2023-02-25T07:22:01.491Z,978.9
2023-02-25T07:24:27.636Z,978.9
2023-02-25T07:26:53.698Z,979
2023-02-25T07:29:19.792Z,979
2023-02-25T07:31:45.883Z,978.9
2023-02-25T07:34:11.004Z,978.9
2023-02-25T07:36:37.102Z,978.9
2023-02-25T07:39:03.191Z,978.9
2023-02-25T07:41:29.315Z,978.9
2023-02-25T07:43:55.385Z,978.9
2023-02-25T07:46:21.471Z,978.9
2023-02-25T07:48:47.566Z,979
2023-02-25T07:51:13.676Z,978.9
2023-02-25T07:53:39.754Z,978.9
2023-02-25T07:56:05.858Z,978.9
2023-02-25T07:58:31.943Z,978.9
2023-02-25T08:00:58.055Z,978.9
2023-02-25T08:03:24.157Z,978.9
2023-02-25T08:05:49.331Z,979
2023-02-25T08:08:15.458Z,979
2023-02-25T08:10:41.469Z,979.1
2023-02-25T08:13:07.552Z,979
2023-02-25T08:15:33.628Z,979
2023-02-25T08:17:59.728Z,979
2023-02-25T08:20:25.887Z,979
2023-02-25T08:22:51.933Z,979
2023-02-25T08:25:18.026Z,979
2023-02-25T08:27:44.107Z,979
2023-02-25T08:30:10.258Z,979.1
2023-02-25T08:32:36.315Z,979.1
2023-02-25T08:35:02.417Z,979
2023-02-25T08:37:27.511Z,979
2023-02-25T08:39:53.642Z,979.1
2023-02-25T08:42:19.757Z,979
2023-02-25T08:44:45.794Z,978.9
2023-02-25T08:47:11.892Z,978.9
2023-02-25T08:49:37.984Z,978.9
2023-02-25T08:52:04.071Z,979
2023-02-25T08:54:30.173Z,979
2023-02-25T08:56:56.288Z,979
2023-02-25T08:59:22.508Z,979
2023-02-25T09:01:48.463Z,979
2023-02-25T09:04:14.569Z,979
2023-02-25T09:06:40.667Z,979
2023-02-25T09:09:05.798Z,979.1
2023-02-25T09:11:31.883Z,979
2023-02-25T09:13:57.985Z,979
2023-02-25T09:16:24.058Z,979
2023-02-25T09:18:50.158Z,979.1
2023-02-25T09:21:16.232Z,979
2023-02-25T09:23:42.356Z,979
2023-02-25T09:26:08.468Z,978.9
2023-02-25T09:28:34.610Z,978.9
2023-02-25T09:31:00.632Z,978.9
2023-02-25T09:33:26.724Z,978.9
2023-02-25T09:35:52.842Z,978.9
2023-02-25T09:38:18.920Z,978.9
2023-02-25T09:40:44.047Z,978.9
2023-02-25T09:43:10.155Z,978.9
2023-02-25T09:45:36.217Z,978.9
2023-02-25T09:48:02.320Z,978.9
2023-02-25T09:50:28.557Z,978.8
2023-02-25T09:52:54.509Z,978.8
2023-02-25T09:55:20.625Z,978.9
2023-02-25T09:57:46.784Z,978.9
2023-02-25T10:00:12.812Z,978.8
2023-02-25T10:02:38.901Z,978.9
2023-02-25T10:05:05.076Z,978.9
2023-02-25T10:07:31.102Z,978.8
2023-02-25T10:09:57.193Z,978.9
2023-02-25T10:12:22.297Z,978.8
2023-02-25T10:14:48.458Z,978.8
2023-02-25T10:17:14.497Z,978.8
2023-02-25T10:19:40.605Z,978.8
2023-02-25T10:22:06.708Z,978.9
2023-02-25T10:24:32.816Z,978.9
2023-02-25T10:26:58.870Z,978.9
2023-02-25T10:29:24.978Z,978.8
2023-02-25T10:31:51.070Z,978.8
2023-02-25T10:34:17.159Z,978.9
2023-02-25T10:36:43.242Z,978.8
2023-02-25T10:39:09.348Z,978.9
2023-02-25T10:41:35.482Z,978.8
2023-02-25T10:44:00.562Z,978.8
2023-02-25T10:46:26.744Z,978.8
2023-02-25T10:48:52.749Z,978.8
2023-02-25T10:51:18.932Z,978.7
2023-02-25T10:53:45.099Z,978.7
2023-02-25T10:56:11.180Z,978.7
2023-02-25T10:58:37.297Z,978.7
2023-02-25T11:01:03.297Z,978.7
2023-02-25T11:03:29.309Z,978.8
2023-02-25T11:05:55.430Z,978.8
2023-02-25T11:08:21.582Z,978.6
2023-02-25T11:10:47.753Z,978.6
2023-02-25T11:13:13.873Z,978.5
2023-02-25T11:15:38.912Z,978.6
2023-02-25T11:18:05.066Z,978.5
2023-02-25T11:20:31.134Z,978.6
2023-02-25T11:22:57.210Z,978.6
2023-02-25T11:25:23.271Z,978.6
2023-02-25T11:27:49.352Z,978.6
2023-02-25T11:30:15.384Z,978.5
2023-02-25T11:32:41.653Z,978.6
2023-02-25T11:35:07.682Z,978.5
2023-02-25T11:37:33.816Z,978.6
2023-02-25T11:39:59.768Z,978.6
2023-02-25T11:42:25.989Z,978.7
2023-02-25T11:44:52.069Z,978.6
2023-02-25T11:47:17.211Z,978.6
2023-02-25T11:49:43.232Z,978.6
2023-02-25T11:52:09.314Z,978.7
2023-02-25T11:54:35.451Z,978.6
2023-02-25T11:57:01.579Z,978.6
2023-02-25T11:59:27.562Z,978.6
2023-02-25T12:01:53.762Z,978.5
2023-02-25T12:04:19.744Z,978.5
2023-02-25T12:06:46.003Z,978.5
2023-02-25T12:09:11.961Z,978.5
2023-02-25T12:11:38.038Z,978.5
2023-02-25T12:14:04.284Z,978.5
2023-02-25T12:16:30.214Z,978.5
2023-02-25T12:18:55.428Z,978.5
2023-02-25T12:21:21.488Z,978.4
2023-02-25T12:23:47.706Z,978.4
2023-02-25T12:26:13.622Z,978.5
2023-02-25T12:28:39.713Z,978.5
2023-02-25T12:31:05.923Z,978.5
2023-02-25T12:33:31.971Z,978.4
2023-02-25T12:35:57.990Z,978.5
2023-02-25T12:38:24.221Z,978.5
2023-02-25T12:40:50.275Z,978.4
2023-02-25T12:43:16.309Z,978.5
2023-02-25T12:45:42.383Z,978.4
2023-02-25T12:48:08.510Z,978.4
2023-02-25T12:50:33.610Z,978.5
2023-02-25T12:52:59.674Z,978.6
2023-02-25T12:55:25.781Z,978.6
2023-02-25T12:57:51.865Z,978.5
2023-02-25T13:00:17.987Z,978.5
2023-02-25T13:02:44.125Z,978.5
2023-02-25T13:05:09.185Z,978.5
2023-02-25T13:07:35.284Z,978.4
2023-02-25T13:10:01.406Z,978.3
2023-02-25T13:12:27.469Z,978.3
2023-02-25T13:14:53.570Z,978.2
2023-02-25T13:17:19.653Z,978.2
2023-02-25T13:19:45.744Z,978.1
2023-02-25T13:22:11.872Z,978.3
2023-02-25T13:24:37.955Z,978.3
2023-02-25T13:27:04.052Z,978.3
2023-02-25T13:29:30.169Z,978.3
2023-02-25T13:31:56.238Z,978.5
2023-02-25T13:34:22.386Z,978.4
2023-02-25T13:36:47.510Z,978.4
2023-02-25T13:39:13.543Z,978.5
2023-02-25T13:41:39.638Z,978.5
2023-02-25T13:44:05.726Z,978.4
2023-02-25T13:46:31.876Z,978.4
2023-02-25T13:48:57.926Z,978.3
2023-02-25T13:51:24.029Z,978.3
2023-02-25T13:56:16.214Z,978.3
2023-02-25T13:58:42.400Z,978.3
2023-02-25T14:01:08.455Z,978.3
2023-02-25T14:03:34.491Z,978.3
2023-02-25T14:06:00.578Z,978.3
2023-02-25T14:08:25.708Z,978.2
2023-02-25T14:10:51.799Z,978.2
2023-02-25T14:13:17.895Z,978.3
2023-02-25T14:15:43.992Z,978.2
2023-02-25T14:18:10.156Z,978.2
2023-02-25T14:20:36.205Z,978.1
2023-02-25T14:23:02.282Z,978.2
2023-02-25T14:25:28.396Z,978.3
2023-02-25T14:27:54.477Z,978.1
2023-02-25T14:30:20.646Z,978.2
2023-02-25T14:32:46.760Z,978.2
2023-02-25T14:35:12.774Z,978.3
2023-02-25T14:37:38.873Z,978.2
2023-02-25T14:40:04.004Z,978.2
2023-02-25T14:42:30.089Z,978.2
2023-02-25T14:44:56.150Z,978.2
2023-02-25T14:47:22.389Z,978.1
2023-02-25T14:59:32.731Z,978.1
2023-02-25T15:01:57.897Z,978.2
2023-02-25T15:04:22.977Z,978.2
2023-02-25T15:06:48.092Z,978.3
2023-02-25T15:09:13.239Z,978.3
2023-02-25T15:11:38.345Z,978.3
2023-02-25T15:14:03.448Z,978.2
2023-02-25T15:16:28.576Z,978.3
2023-02-25T15:18:53.754Z,978.3
2023-02-25T15:21:18.778Z,978.3
2023-02-25T15:23:43.903Z,978.3
2023-02-25T15:26:10.070Z,978.4
2023-02-25T15:28:36.093Z,978.5
2023-02-25T15:31:02.200Z,978.5
2023-02-25T15:33:28.274Z,978.5
2023-02-25T15:35:54.393Z,978.5
2023-02-25T15:38:20.484Z,978.5
2023-02-25T15:40:46.569Z,978.4
2023-02-25T15:43:12.760Z,978.5
2023-02-25T15:45:38.783Z,978.5
2023-02-25T15:48:03.875Z,978.5
2023-02-25T15:50:29.007Z,978.5
2023-02-25T15:52:55.140Z,978.5
2023-02-25T15:55:21.231Z,978.5
2023-02-25T15:57:47.306Z,978.4
2023-02-25T16:00:13.368Z,978.6
2023-02-25T16:02:39.475Z,978.9
2023-02-25T16:05:05.581Z,978.9
2023-02-25T16:07:31.670Z,979
2023-02-25T16:09:57.798Z,979.1
2023-02-25T16:12:23.864Z,979.1
2023-02-25T16:14:50.066Z,979.2
2023-02-25T16:17:16.081Z,979.2
2023-02-25T16:19:42.144Z,979.2
2023-02-25T16:22:07.263Z,979.2
2023-02-25T16:24:33.358Z,979.3
2023-02-25T16:26:59.449Z,979.3
2023-02-25T16:29:25.549Z,979.2
2023-02-25T16:31:51.645Z,979.3
2023-02-25T16:34:17.730Z,979.2
2023-02-25T16:36:43.839Z,979.3
2023-02-25T16:39:08.963Z,979.4
2023-02-25T16:41:34.075Z,979.3
2023-02-25T16:44:00.164Z,979.4
2023-02-25T16:46:26.264Z,979.5
2023-02-25T16:48:52.353Z,979.5
2023-02-25T16:51:18.475Z,979.6
2023-02-25T16:53:44.536Z,979.6
2023-02-25T16:56:10.641Z,979.6
2023-02-25T16:58:36.726Z,979.6
2023-02-25T17:01:02.833Z,979.6
2023-02-25T17:03:28.916Z,979.6
2023-02-25T17:05:55.043Z,979.6
2023-02-25T17:08:21.180Z,979.7
2023-02-25T17:10:47.204Z,979.7
2023-02-25T17:13:12.319Z,979.7
2023-02-25T17:15:38.413Z,979.7
2023-02-25T17:18:04.531Z,979.8
2023-02-25T17:20:30.651Z,979.8
2023-02-25T17:22:56.698Z,979.8
2023-02-25T17:25:22.873Z,979.8
2023-02-25T17:27:49.052Z,979.9
2023-02-25T17:30:14.101Z,979.9
2023-02-25T17:32:39.251Z,979.8
2023-02-25T17:35:04.251Z,979.9
2023-02-25T17:37:29.371Z,979.9
2023-02-25T17:39:55.458Z,980.1
2023-02-25T17:42:21.602Z,980.3
2023-02-25T17:44:47.654Z,980.4
2023-02-25T17:47:13.857Z,980.5
2023-02-25T17:49:39.878Z,980.5
2023-02-25T17:52:06.057Z,980.6
2023-02-25T17:54:32.128Z,980.7
2023-02-25T17:56:58.244Z,980.7
2023-02-25T17:59:24.238Z,980.7
2023-02-25T18:01:50.337Z,980.6
2023-02-25T18:04:16.680Z,980.6
2023-02-25T18:06:42.535Z,980.7
2023-02-25T18:09:07.642Z,980.7
2023-02-25T18:11:33.845Z,980.8
2023-02-25T18:13:59.953Z,980.9
2023-02-25T18:16:25.922Z,981
2023-02-25T18:18:52.026Z,980.9
2023-02-25T18:21:18.126Z,980.9
2023-02-25T18:23:44.213Z,980.9
2023-02-25T18:26:09.356Z,981
2023-02-25T18:28:34.457Z,981
2023-02-25T18:33:25.728Z,980.9
2023-02-25T18:35:50.825Z,980.9
2023-02-25T18:38:16.865Z,980.9
2023-02-25T18:40:43.070Z,980.8
2023-02-25T18:43:09.161Z,980.9
2023-02-25T18:45:35.191Z,980.9
2023-02-25T18:48:01.295Z,980.9
2023-02-25T18:50:27.388Z,980.9
2023-02-25T18:52:53.461Z,981
2023-02-25T18:55:19.648Z,981.1
2023-02-25T18:57:45.685Z,981.1
2023-02-25T19:00:11.762Z,981
2023-02-25T19:02:37.855Z,981.1
2023-02-25T19:05:04.005Z,981.1
2023-02-25T19:07:29.071Z,981.1
2023-02-25T19:09:55.160Z,981.2
2023-02-25T19:12:21.280Z,981.2
2023-02-25T19:14:47.436Z,981.1
2023-02-25T19:17:13.460Z,981.2
2023-02-25T19:19:38.639Z,981.2
2023-02-25T19:22:03.696Z,981.2
2023-02-25T19:24:29.800Z,981.2
2023-02-25T19:26:55.901Z,981.2
2023-02-25T19:29:22.104Z,981.3
2023-02-25T19:31:48.084Z,981.3
2023-02-25T19:34:14.238Z,981.4
2023-02-25T19:36:40.365Z,981.4
2023-02-25T19:39:06.478Z,981.5
2023-02-25T19:41:32.595Z,981.5
2023-02-25T19:43:58.701Z,981.5
2023-02-25T19:46:24.703Z,981.6
2023-02-25T19:48:50.819Z,981.6
2023-02-25T19:51:16.924Z,981.7
2023-02-25T19:53:42.117Z,981.7
2023-02-25T19:56:08.067Z,981.7
2023-02-25T19:58:34.189Z,981.8
2023-02-25T20:01:00.343Z,981.7
2023-02-25T20:03:26.525Z,981.8
2023-02-25T20:05:52.624Z,981.8
2023-02-25T20:08:18.556Z,981.8
2023-02-25T20:10:43.900Z,981.9
2023-02-25T20:13:08.893Z,981.9
2023-02-25T20:15:34.954Z,981.9
2023-02-25T20:18:01.070Z,981.9
2023-02-25T20:20:27.128Z,982
2023-02-25T20:22:53.250Z,982.1
2023-02-25T20:25:19.279Z,982
2023-02-25T20:27:45.404Z,982.1
2023-02-25T20:30:11.471Z,982.1
2023-02-25T20:32:37.697Z,982.1
2023-02-25T20:35:03.710Z,982.1
2023-02-25T20:37:29.813Z,982.1
2023-02-25T20:39:55.895Z,982.1
2023-02-25T20:42:22.016Z,982.1
2023-02-25T20:44:47.158Z,982.2
2023-02-25T20:47:13.184Z,982.2
2023-02-25T20:49:39.278Z,982.3
2023-02-25T20:52:05.378Z,982.3
2023-02-25T20:54:31.463Z,982.3
2023-02-25T20:56:57.579Z,982.3
2023-02-25T21:01:49.808Z,982.4
2023-02-25T21:04:15.854Z,982.4
2023-02-25T21:06:41.984Z,982.5
2023-02-25T21:09:08.038Z,982.5
2023-02-25T21:11:34.134Z,982.5
2023-02-25T21:14:00.225Z,982.4
2023-02-25T21:16:26.355Z,982.5
2023-02-25T21:18:52.426Z,982.4
2023-02-25T21:21:18.541Z,982.5
2023-02-25T21:23:44.620Z,982.5
2023-02-25T21:26:10.705Z,982.5
2023-02-25T21:28:36.806Z,982.5
2023-02-25T21:31:02.923Z,982.6
2023-02-25T21:33:29.134Z,982.5
2023-02-25T21:35:55.114Z,982.6
2023-02-25T21:38:21.275Z,982.7
2023-02-25T21:40:47.309Z,982.6
2023-02-25T21:43:13.418Z,982.7
2023-02-25T21:45:39.555Z,982.7
2023-02-25T21:48:05.641Z,982.8
2023-02-25T21:50:31.693Z,982.8
2023-02-25T21:52:57.796Z,982.8
2023-02-25T21:55:23.948Z,982.8
2023-02-25T21:57:50.044Z,982.8
2023-02-25T22:00:16.081Z,982.8
2023-02-25T22:02:42.189Z,982.8
2023-02-25T22:05:07.311Z,982.9
2023-02-25T22:07:33.451Z,982.8
2023-02-25T22:09:59.517Z,982.8
2023-02-25T22:12:25.596Z,982.8
2023-02-25T22:14:51.694Z,982.9
2023-02-25T22:17:17.798Z,982.8
2023-02-25T22:19:43.880Z,982.9
2023-02-25T22:22:10.132Z,982.8
2023-02-25T22:24:36.092Z,982.8
2023-02-25T22:27:02.175Z,982.8
2023-02-25T22:29:28.286Z,982.8
2023-02-25T22:31:54.361Z,982.9
2023-02-25T22:34:20.460Z,982.9
2023-02-25T22:36:46.650Z,982.9
2023-02-25T22:39:12.654Z,982.9
2023-02-25T22:41:37.870Z,982.9
2023-02-25T22:44:03.895Z,982.9
2023-02-25T22:46:29.977Z,982.9
2023-02-25T22:48:56.070Z,982.9
2023-02-25T22:51:22.255Z,983
2023-02-25T22:53:48.389Z,983
2023-02-25T22:56:14.364Z,983
2023-02-25T22:58:40.467Z,983
2023-02-25T23:01:06.571Z,983.1
2023-02-25T23:03:32.669Z,983
2023-02-25T23:05:58.738Z,983
2023-02-25T23:08:24.913Z,983
2023-02-25T23:10:50.945Z,983.1
2023-02-25T23:13:16.061Z,983
2023-02-25T23:15:42.216Z,983
2023-02-25T23:18:08.269Z,983
2023-02-25T23:20:34.343Z,983.1
2023-02-25T23:23:00.456Z,983.1
2023-02-25T23:25:26.569Z,983.2
2023-02-25T23:27:52.653Z,983.1
2023-02-25T23:30:18.766Z,983.1
2023-02-25T23:32:44.838Z,983.1
2023-02-25T23:35:10.949Z,983.2
2023-02-25T23:37:37.237Z,983.2
2023-02-25T23:40:03.335Z,983.2
2023-02-25T23:42:29.415Z,983.1
2023-02-25T23:44:54.453Z,983.2
2023-02-25T23:47:20.439Z,983.2
2023-02-25T23:49:46.559Z,983.2
2023-02-25T23:52:12.645Z,983.2
2023-02-25T23:54:38.927Z,983.2
2023-02-25T23:57:04.988Z,983.3
2023-02-25T23:59:31.139Z,983.3
